Time;durP1;ratioP1;P1;durP2;ratioP2;P2;SDS_P1;SDS_P2;PMS_P1;PMS_P2;Temp;Humidity;BMP_temperature;BMP_pressure;BME280_temperature;BME280_humidity;BME280_pressure;Samples;Min_cycle;Max_cycle;Signal;HPM_P1;HPM_P2
2022/07/03 00:01:51;;;;;;;11.88;4.10;;;18.10;1.00;;;;;;5069541;28;20402;-54
2022/07/03 00:04:18;;;;;;;9.43;3.87;;;18.20;1.00;;;;;;5067832;28;20387;-53
2022/07/03 00:06:44;;;;;;;9.10;4.00;;;18.20;1.00;;;;;;5069753;28;20395;-53
2022/07/03 00:09:09;;;;;;;8.00;3.43;;;18.20;99.90;;;;;;5070522;28;20414;-53
2022/07/03 00:11:35;;;;;;;7.23;3.30;;;18.20;1.00;;;;;;5071014;28;20392;-54
2022/07/03 00:14:01;;;;;;;7.47;3.55;;;18.10;1.00;;;;;;5070188;28;20718;-53
2022/07/03 00:16:26;;;;;;;6.55;3.55;;;18.10;12.80;;;;;;5070735;28;20392;-52
2022/07/03 00:18:52;;;;;;;7.57;3.50;;;18.00;1.00;;;;;;5070444;28;20982;-52
2022/07/03 00:21:28;;;;;;;7.07;3.70;;;18.00;1.00;;;;;;5070098;28;20384;-53
2022/07/03 00:24:08;;;;;;;9.13;3.70;;;17.90;1.00;;;;;;5068531;28;20395;-53
2022/07/03 00:26:41;;;;;;;8.48;3.67;;;17.80;1.00;;;;;;5069221;28;20411;-53
2022/07/03 00:29:08;;;;;;;8.02;3.70;;;17.70;1.00;;;;;;5069645;28;20411;-52
2022/07/03 00:31:34;;;;;;;7.38;3.47;;;17.70;84.80;;;;;;5069535;28;20400;-53
2022/07/03 00:34:01;;;;;;;6.80;3.30;;;17.80;99.90;;;;;;5069493;28;20418;-53
2022/07/03 00:36:34;;;;;;;7.20;3.22;;;17.70;1.00;;;;;;5069008;28;20402;-53
2022/07/03 00:39:00;;;;;;;8.20;3.90;;;17.90;1.00;;;;;;5074032;28;20416;-53
2022/07/03 00:41:28;;;;;;;6.70;3.00;;;17.90;1.00;;;;;;5068921;28;20403;-53
2022/07/03 00:43:54;;;;;;;7.15;3.55;;;17.80;99.90;;;;;;5068794;28;20379;-53
2022/07/03 00:46:23;;;;;;;10.03;3.60;;;17.90;99.90;;;;;;5069712;28;20400;-53
2022/07/03 00:48:50;;;;;;;7.63;3.33;;;17.80;99.90;;;;;;5068668;28;20415;-53
2022/07/03 00:51:21;;;;;;;7.88;3.60;;;17.80;1.00;;;;;;5069440;28;20399;-53
2022/07/03 00:53:53;;;;;;;7.18;3.20;;;17.70;99.90;;;;;;5068608;28;20388;-53
2022/07/03 00:56:28;;;;;;;7.20;3.40;;;17.70;99.90;;;;;;5067317;28;20857;-53
2022/07/03 00:58:56;;;;;;;7.97;3.90;;;17.70;1.00;;;;;;5068956;28;20530;-53
2022/07/03 01:01:25;;;;;;;7.25;3.08;;;17.70;99.90;;;;;;5068612;28;20392;-53
2022/07/03 01:04:03;;;;;;;8.20;3.25;;;17.80;1.00;;;;;;5067811;28;20473;-53
2022/07/03 01:06:34;;;;;;;8.27;2.95;;;17.80;1.00;;;;;;5068105;28;20679;-53
2022/07/03 01:09:03;;;;;;;9.52;3.10;;;17.80;1.00;;;;;;5069423;28;20404;-53
2022/07/03 01:11:38;;;;;;;7.20;3.20;;;17.70;1.00;;;;;;5071208;28;20458;-53
2022/07/03 01:14:24;;;;;;;6.90;3.27;;;17.70;1.00;;;;;;5071585;28;20396;-53
2022/07/03 01:17:05;;;;;;;7.47;3.40;;;17.80;1.00;;;;;;5067884;28;20395;-53
2022/07/03 01:19:42;;;;;;;7.70;3.40;;;17.60;99.90;;;;;;5068024;28;20829;-53
2022/07/03 01:22:23;;;;;;;7.78;3.53;;;17.60;99.90;;;;;;5067285;28;20453;-53
2022/07/03 01:25:22;;;;;;;8.80;3.70;;;17.60;90.30;;;;;;5068046;28;20527;-53
2022/07/03 01:27:57;;;;;;;7.95;3.80;;;17.70;1.00;;;;;;5068030;28;20416;-53
2022/07/03 01:30:23;;;;;;;7.22;3.30;;;17.80;1.00;;;;;;5066606;28;20533;-53
2022/07/03 01:32:58;;;;;;;6.43;3.00;;;17.70;99.90;;;;;;5070972;28;20392;-53
2022/07/03 01:35:32;;;;;;;7.00;3.50;;;17.50;99.90;;;;;;5067350;28;20395;-53
2022/07/03 01:38:03;;;;;;;9.90;4.30;;;17.30;1.00;;;;;;5070475;28;20498;-52
2022/07/03 01:40:29;;;;;;;8.40;4.30;;;17.20;1.00;;;;;;5071742;28;20385;-53
2022/07/03 01:42:56;;;;;;;9.07;4.28;;;17.20;97.50;;;;;;5072312;28;20478;-53
2022/07/03 01:45:26;;;;;;;10.60;4.20;;;17.20;1.00;;;;;;5068638;28;20387;-56
2022/07/03 01:47:52;;;;;;;8.60;4.10;;;17.30;1.00;;;;;;5069278;28;20494;-54
2022/07/03 01:50:21;;;;;;;8.57;3.90;;;17.40;99.90;;;;;;5068986;28;20440;-55
2022/07/03 01:52:48;;;;;;;9.23;3.90;;;17.50;1.00;;;;;;5067573;28;20415;-55
2022/07/03 01:55:15;;;;;;;6.80;3.50;;;17.40;1.00;;;;;;5067940;28;20473;-54
2022/07/03 01:57:46;;;;;;;9.93;3.60;;;17.40;1.00;;;;;;5067938;28;20453;-55
2022/07/03 02:00:14;;;;;;;8.82;4.00;;;17.30;1.00;;;;;;5066560;28;20413;-54
2022/07/03 02:02:56;;;;;;;10.80;4.20;;;17.40;99.90;;;;;;5067732;28;20740;-54
2022/07/03 02:05:39;;;;;;;8.80;3.88;;;17.40;99.90;;;;;;5067543;28;20408;-54
2022/07/03 02:08:08;;;;;;;7.10;3.45;;;17.40;1.00;;;;;;5066452;28;20464;-56
2022/07/03 02:10:39;;;;;;;11.18;4.32;;;17.40;1.00;;;;;;5068142;28;20450;-59
2022/07/03 02:13:22;;;;;;;8.00;4.27;;;17.40;99.90;;;;;;5066375;28;20384;-60
2022/07/03 02:15:51;;;;;;;8.65;4.18;;;17.50;1.00;;;;;;5066322;28;20781;-59
2022/07/03 02:18:36;;;;;;;8.35;3.60;;;17.50;1.00;;;;;;5067489;28;20411;-59
2022/07/03 02:21:02;;;;;;;8.80;4.37;;;17.50;1.00;;;;;;5066078;28;20449;-61
2022/07/03 02:23:32;;;;;;;8.68;3.75;;;17.50;1.00;;;;;;5068855;28;20390;-60
2022/07/03 02:26:03;;;;;;;8.60;4.10;;;17.50;1.00;;;;;;5068996;28;20515;-55
2022/07/03 02:28:55;;;;;;;8.50;4.35;;;17.50;1.00;;;;;;5068713;28;20903;-53
2022/07/03 02:31:24;;;;;;;8.57;3.70;;;17.40;99.90;;;;;;5066306;28;20403;-52
2022/07/03 02:33:57;;;;;;;8.43;4.38;;;17.30;99.90;;;;;;5067282;28;20400;-53
2022/07/03 02:36:25;;;;;;;9.87;4.90;;;17.10;99.90;;;;;;5064768;28;20505;-57
2022/07/03 02:38:55;;;;;;;9.32;4.55;;;17.10;1.00;;;;;;5069703;28;20408;-56
2022/07/03 02:41:51;;;;;;;8.45;4.93;;;17.10;87.20;;;;;;5067336;28;20395;-53
2022/07/03 02:44:36;;;;;;;9.55;4.60;;;17.00;99.90;;;;;;5062705;28;20405;-53
2022/07/03 02:47:11;;;;;;;9.85;4.30;;;17.00;99.90;;;;;;5068138;28;20400;-53
2022/07/03 02:49:48;;;;;;;8.35;4.53;;;16.90;1.00;;;;;;5066930;28;20487;-53
2022/07/03 02:52:23;;;;;;;11.10;4.38;;;16.80;1.00;;;;;;5067138;28;20419;-53
2022/07/03 02:54:52;;;;;;;8.65;4.35;;;16.80;77.60;;;;;;5067899;28;20425;-53
2022/07/03 02:57:19;;;;;;;9.00;4.80;;;16.80;1.00;;;;;;5067422;28;20428;-54
2022/07/03 03:00:06;;;;;;;8.38;4.90;;;16.90;1.00;;;;;;5068014;28;20396;-53
2022/07/03 03:02:55;;;;;;;9.90;4.30;;;16.90;1.00;;;;;;5066653;28;20407;-53
2022/07/03 03:05:20;;;;;;;9.23;4.65;;;16.90;1.00;;;;;;5067539;28;20446;-53
2022/07/03 03:08:06;;;;;;;9.35;4.43;;;17.00;1.00;;;;;;5068276;28;20447;-53
2022/07/03 03:10:36;;;;;;;9.65;4.50;;;17.00;1.00;;;;;;5069167;28;20495;-53
2022/07/03 03:13:06;;;;;;;8.73;4.72;;;17.00;1.00;;;;;;5068051;28;20392;-53
2022/07/03 03:15:33;;;;;;;8.35;4.65;;;17.00;1.00;;;;;;5067605;28;20380;-53
2022/07/03 03:18:04;;;;;;;8.35;4.22;;;17.00;1.00;;;;;;5070519;28;20481;-53
2022/07/03 03:20:35;;;;;;;8.73;4.60;;;17.00;1.00;;;;;;5067704;28;20438;-53
2022/07/03 03:23:16;;;;;;;9.75;4.70;;;17.00;1.00;;;;;;5064759;28;20384;-53
2022/07/03 03:25:42;;;;;;;8.70;4.60;;;17.00;1.00;;;;;;5064330;28;20415;-53
2022/07/03 03:28:08;;;;;;;7.80;4.50;;;17.00;1.00;;;;;;5071033;28;20413;-53
2022/07/03 03:30:36;;;;;;;10.27;4.60;;;17.10;1.00;;;;;;5071703;28;20391;-53
2022/07/03 03:33:02;;;;;;;8.13;4.40;;;17.00;1.00;;;;;;5070989;28;20879;-53
2022/07/03 03:35:28;;;;;;;8.00;4.25;;;16.90;1.00;;;;;;5071273;28;20391;-53
2022/07/03 03:37:54;;;;;;;9.20;4.70;;;16.90;99.90;;;;;;5069850;28;20399;-53
2022/07/03 03:40:19;;;;;;;8.98;4.75;;;16.90;29.50;;;;;;5069502;28;20399;-53
2022/07/03 03:42:45;;;;;;;10.73;4.85;;;16.90;58.90;;;;;;5069532;28;20442;-53
2022/07/03 03:45:11;;;;;;;9.80;4.97;;;17.00;1.00;;;;;;5070341;28;20395;-53
2022/07/03 03:47:36;;;;;;;8.50;4.20;;;16.90;46.20;;;;;;5072717;28;20396;-53
2022/07/03 03:50:03;;;;;;;8.32;4.80;;;16.80;99.90;;;;;;5070653;28;20406;-53
2022/07/03 03:52:29;;;;;;;8.18;4.35;;;16.80;99.90;;;;;;5071399;28;20486;-53
2022/07/03 03:54:55;;;;;;;9.50;4.73;;;16.90;99.90;;;;;;5072522;28;20403;-53
2022/07/03 03:57:25;;;;;;;8.10;4.50;;;16.90;99.90;;;;;;5070492;28;20482;-52
2022/07/03 03:59:51;;;;;;;8.10;4.23;;;17.00;78.90;;;;;;5070845;28;20489;-53
2022/07/03 04:02:17;;;;;;;8.85;4.30;;;16.90;99.90;;;;;;5071187;28;20391;-53
2022/07/03 04:04:43;;;;;;;8.60;4.07;;;16.90;99.90;;;;;;5069416;28;20791;-53
2022/07/03 04:07:09;;;;;;;9.57;4.22;;;16.90;99.90;;;;;;5071427;28;20419;-53
2022/07/03 04:09:35;;;;;;;12.33;4.00;;;16.90;99.90;;;;;;5072348;28;20481;-53
2022/07/03 04:12:01;;;;;;;7.30;4.30;;;17.00;74.20;;;;;;5070910;28;20403;-52
2022/07/03 04:14:26;;;;;;;7.82;3.88;;;17.10;1.00;;;;;;5069467;28;20387;-52
2022/07/03 04:16:52;;;;;;;10.03;4.50;;;17.10;1.00;;;;;;5068840;28;20474;-52
2022/07/03 04:19:18;;;;;;;9.05;4.28;;;17.20;1.00;;;;;;5070244;28;20394;-53
2022/07/03 04:21:43;;;;;;;9.10;4.20;;;17.30;1.00;;;;;;5066854;28;20395;-53
2022/07/03 04:24:09;;;;;;;7.23;4.03;;;17.40;1.00;;;;;;5073563;28;20812;-53
2022/07/03 04:26:35;;;;;;;7.40;3.80;;;17.40;1.00;;;;;;5069976;28;20921;-53
2022/07/03 04:29:01;;;;;;;7.55;3.90;;;17.50;1.00;;;;;;5070579;28;21301;-53
2022/07/03 04:31:26;;;;;;;7.03;3.90;;;17.60;99.90;;;;;;5070426;28;20788;-53
2022/07/03 04:33:52;;;;;;;7.23;3.60;;;17.70;99.90;;;;;;5070607;28;20391;-53
2022/07/03 04:36:18;;;;;;;6.65;3.00;;;17.70;99.90;;;;;;5065813;28;20769;-53
2022/07/03 04:38:44;;;;;;;7.20;3.60;;;17.80;99.90;;;;;;5068701;28;20392;-53
2022/07/03 04:41:10;;;;;;;8.48;3.42;;;17.90;1.00;;;;;;5072556;28;20912;-52
2022/07/03 04:43:38;;;;;;;6.95;3.63;;;18.00;1.00;;;;;;5067981;28;20454;-53
2022/07/03 04:46:04;;;;;;;6.90;3.10;;;18.10;1.00;;;;;;5070891;28;20403;-53
2022/07/03 04:48:30;;;;;;;6.60;3.10;;;18.20;1.00;;;;;;5069638;28;20407;-53
2022/07/03 04:50:57;;;;;;;7.32;3.40;;;18.30;1.00;;;;;;5068950;28;20396;-53
2022/07/03 04:53:23;;;;;;;6.70;3.40;;;18.40;1.00;;;;;;5070789;28;20395;-52
2022/07/03 04:55:49;;;;;;;6.45;3.30;;;18.60;99.90;;;;;;5069853;28;20804;-53
2022/07/03 04:58:14;;;;;;;6.70;3.10;;;18.70;1.00;;;;;;5068918;28;20392;-52
2022/07/03 05:00:43;;;;;;;7.25;2.97;;;19.00;1.00;;;;;;5068863;28;20388;-53
2022/07/03 05:03:09;;;;;;;6.60;3.10;;;20.10;99.90;;;;;;5071227;28;20419;-53
2022/07/03 05:05:34;;;;;;;6.10;2.70;;;21.80;99.90;;;;;;5067734;28;20427;-53
2022/07/03 05:08:00;;;;;;;7.60;2.70;;;23.60;1.00;;;;;;5071226;28;20419;-54
2022/07/03 05:10:26;;;;;;;6.17;2.27;;;25.40;99.90;;;;;;5071380;28;20400;-53
2022/07/03 05:12:52;;;;;;;6.37;2.70;;;26.80;99.90;;;;;;5070207;28;21033;-53
2022/07/03 05:15:17;;;;;;;6.50;2.30;;;28.20;99.90;;;;;;5069114;28;20702;-53
2022/07/03 05:17:43;;;;;;;6.00;2.50;;;29.20;99.90;;;;;;5068653;28;20394;-54
2022/07/03 05:20:25;;;;;;;6.37;2.97;;;29.90;99.90;;;;;;5069513;28;20430;-53
2022/07/03 05:22:52;;;;;;;7.07;3.40;;;30.40;99.90;;;;;;5072085;28;20424;-54
2022/07/03 05:25:18;;;;;;;6.50;2.60;;;31.30;99.90;;;;;;5068746;28;20415;-53
2022/07/03 05:27:44;;;;;;;6.33;4.17;;;31.60;99.90;;;;;;5068830;28;20412;-54
2022/07/03 05:30:10;;;;;;;7.90;4.23;;;31.90;99.90;;;;;;5069388;28;20443;-53
2022/07/03 05:32:36;;;;;;;6.93;2.38;;;32.80;99.90;;;;;;5069346;28;20383;-54
2022/07/03 05:35:03;;;;;;;5.90;2.33;;;33.40;99.90;;;;;;5069719;28;20627;-54
2022/07/03 05:37:28;;;;;;;9.40;7.28;;;33.40;99.90;;;;;;5071001;28;20386;-54
2022/07/03 05:39:54;;;;;;;6.20;4.63;;;34.00;99.90;;;;;;5069318;28;20444;-53
2022/07/03 05:42:20;;;;;;;6.13;4.40;;;33.80;99.90;;;;;;5069573;28;20402;-54
2022/07/03 05:44:45;;;;;;;7.50;4.70;;;33.50;99.90;;;;;;5068829;28;20545;-54
2022/07/03 05:47:11;;;;;;;7.30;5.00;;;33.40;99.90;;;;;;5068453;28;20395;-54
2022/07/03 05:49:36;;;;;;;6.30;4.27;;;33.00;99.90;;;;;;5068191;28;20415;-55
2022/07/03 05:52:02;;;;;;;6.70;5.23;;;32.90;99.90;;;;;;5066974;28;21286;-55
2022/07/03 05:54:28;;;;;;;7.40;4.57;;;32.50;99.90;;;;;;5066936;28;20506;-55
2022/07/03 05:56:53;;;;;;;8.00;4.90;;;32.70;99.90;;;;;;5067554;28;20453;-55
2022/07/03 05:59:19;;;;;;;10.60;5.17;;;32.50;99.90;;;;;;5069831;28;20392;-55
2022/07/03 06:01:45;;;;;;;8.60;5.00;;;32.60;99.90;;;;;;5068639;28;20446;-53
2022/07/03 06:04:10;;;;;;;7.97;5.30;;;33.30;99.90;;;;;;5060563;28;20406;-54
2022/07/03 06:06:36;;;;;;;8.80;5.50;;;34.00;99.90;;;;;;5064318;28;20431;-54
2022/07/03 06:09:02;;;;;;;7.20;5.10;;;35.00;99.90;;;;;;5069849;28;20403;-54
2022/07/03 06:11:28;;;;;;;7.50;5.68;;;35.00;99.90;;;;;;5085800;28;20386;-54
2022/07/03 06:13:53;;;;;;;7.50;5.40;;;35.00;99.90;;;;;;5074593;28;20404;-54
2022/07/03 06:16:19;;;;;;;6.50;5.20;;;35.20;99.90;;;;;;5062076;28;20384;-55
2022/07/03 06:18:44;;;;;;;8.70;5.72;;;35.50;99.90;;;;;;5067772;28;20443;-54
2022/07/03 06:21:10;;;;;;;5.80;2.60;;;34.90;99.90;;;;;;5064265;28;20753;-54
2022/07/03 06:23:36;;;;;;;6.88;2.33;;;34.90;99.90;;;;;;5064162;28;20886;-54
2022/07/03 06:26:01;;;;;;;6.13;2.37;;;35.60;99.90;;;;;;5063154;28;20468;-54
2022/07/03 06:28:27;;;;;;;5.72;2.30;;;34.40;99.90;;;;;;5066594;28;20395;-54
2022/07/03 06:30:53;;;;;;;6.20;2.40;;;34.30;99.90;;;;;;5063437;28;20410;-54
2022/07/03 06:33:22;;;;;;;5.68;2.30;;;34.10;99.90;;;;;;5063370;28;20524;-55
2022/07/03 06:35:48;;;;;;;5.70;2.50;;;34.30;99.90;;;;;;5053264;28;20464;-55
2022/07/03 06:38:13;;;;;;;5.78;2.20;;;34.60;99.90;;;;;;5056421;28;20417;-55
2022/07/03 06:40:39;;;;;;;6.00;2.20;;;33.90;99.90;;;;;;5059433;28;20410;-54
2022/07/03 06:43:04;;;;;;;6.50;2.70;;;34.50;99.90;;;;;;5073564;28;20406;-54
2022/07/03 06:45:30;;;;;;;8.27;2.87;;;34.40;99.90;;;;;;5060044;28;20389;-55
2022/07/03 06:47:56;;;;;;;10.48;2.20;;;34.40;99.90;;;;;;5055699;28;20458;-54
2022/07/03 06:50:21;;;;;;;7.80;2.60;;;35.00;99.90;;;;;;5061087;28;20523;-55
2022/07/03 06:52:47;;;;;;;7.60;4.60;;;35.10;99.90;;;;;;5050895;28;20521;-55
2022/07/03 06:55:13;;;;;;;6.70;4.70;;;35.20;99.90;;;;;;5057102;28;20470;-55
2022/07/03 06:57:39;;;;;;;6.63;3.83;;;36.20;99.90;;;;;;5057970;28;20398;-55
2022/07/03 07:00:07;;;;;;;7.90;7.10;;;37.00;99.90;;;;;;5051966;28;20412;-56
2022/07/03 07:02:32;;;;;;;6.28;2.60;;;37.20;99.90;;;;;;5056411;28;20881;-56
2022/07/03 07:04:58;;;;;;;5.40;1.90;;;37.30;99.90;;;;;;5049033;28;20411;-56
2022/07/03 07:07:24;;;;;;;5.10;1.40;;;36.90;99.90;;;;;;5058337;28;20398;-56
2022/07/03 07:09:49;;;;;;;5.90;2.38;;;37.20;99.90;;;;;;5058422;28;20399;-56
2022/07/03 07:12:15;;;;;;;7.32;4.03;;;36.00;99.90;;;;;;5057564;28;20491;-55
2022/07/03 07:14:42;;;;;;;5.80;2.90;;;35.70;99.90;;;;;;5066729;28;20843;-56
2022/07/03 07:17:07;;;;;;;5.50;2.30;;;35.50;99.90;;;;;;5054349;28;20827;-56
2022/07/03 07:19:33;;;;;;;6.17;1.70;;;36.10;99.90;;;;;;5057675;28;20419;-56
2022/07/03 07:22:00;;;;;;;5.20;2.00;;;36.80;99.90;;;;;;5073150;28;20378;-56
2022/07/03 07:24:27;;;;;;;6.50;1.80;;;36.60;99.90;;;;;;5070146;28;20419;-56
2022/07/03 07:26:52;;;;;;;6.45;2.20;;;36.40;99.90;;;;;;5064587;28;20494;-56
2022/07/03 07:29:18;;;;;;;6.30;1.70;;;36.40;99.90;;;;;;5067504;28;20530;-56
2022/07/03 07:31:44;;;;;;;5.77;1.97;;;36.60;99.90;;;;;;5066767;28;20449;-56
2022/07/03 07:34:09;;;;;;;6.70;1.60;;;36.70;99.90;;;;;;5065106;28;20391;-55
2022/07/03 07:36:35;;;;;;;5.60;1.83;;;37.70;99.90;;;;;;5077411;28;20752;-56
2022/07/03 07:39:00;;;;;;;8.10;1.60;;;38.40;99.90;;;;;;5068936;28;20668;-55
2022/07/03 07:41:26;;;;;;;5.30;2.00;;;37.00;99.90;;;;;;5072243;28;20722;-55
2022/07/03 07:43:52;;;;;;;7.32;6.35;;;37.20;99.90;;;;;;5052775;28;20432;-56
2022/07/03 07:46:17;;;;;;;9.25;3.17;;;36.80;99.90;;;;;;5073827;28;20395;-56
2022/07/03 07:48:44;;;;;;;7.70;5.17;;;36.00;99.90;;;;;;5073433;28;20433;-56
2022/07/03 07:51:10;;;;;;;6.32;4.68;;;36.40;99.90;;;;;;5077252;28;20419;-56
2022/07/03 07:53:36;;;;;;;6.85;6.15;;;37.00;99.90;;;;;;5058747;28;20398;-56
2022/07/03 07:56:03;;;;;;;5.50;3.00;;;35.40;99.90;;;;;;5049496;28;20429;-56
2022/07/03 07:58:28;;;;;;;7.40;4.30;;;34.80;99.90;;;;;;5058105;28;20754;-56
2022/07/03 08:06:22;;;;;;;5.83;2.70;;;34.90;99.90;;;;;;5065544;28;20415;-55
2022/07/03 08:08:48;;;;;;;5.80;2.17;;;36.40;99.90;;;;;;5063498;28;20443;-55
2022/07/03 08:11:14;;;;;;;4.90;1.30;;;38.00;99.90;;;;;;5062519;28;20912;-55
2022/07/03 08:13:40;;;;;;;5.70;1.80;;;37.50;99.90;;;;;;5054553;28;20778;-55
2022/07/03 08:16:05;;;;;;;5.30;1.60;;;36.80;99.90;;;;;;5058977;28;20869;-55
2022/07/03 08:18:31;;;;;;;4.90;1.27;;;36.10;99.90;;;;;;5064779;28;20423;-55
2022/07/03 08:20:57;;;;;;;5.63;3.45;;;36.40;99.90;;;;;;5060434;28;20404;-55
2022/07/03 08:23:22;;;;;;;5.43;2.50;;;35.60;99.90;;;;;;5063129;28;20776;-55
2022/07/03 08:25:48;;;;;;;6.00;2.73;;;35.90;99.90;;;;;;5067040;28;20416;-55
2022/07/03 08:28:14;;;;;;;8.00;2.90;;;37.00;99.90;;;;;;5069714;28;20515;-55
2022/07/03 08:30:39;;;;;;;4.80;1.50;;;36.90;99.90;;;;;;5063915;28;20456;-56
2022/07/03 08:33:05;;;;;;;6.10;1.50;;;37.70;99.90;;;;;;5063197;28;20409;-56
2022/07/03 08:35:31;;;;;;;6.50;2.50;;;38.10;99.90;;;;;;5067308;28;20395;-56
2022/07/03 08:37:57;;;;;;;5.30;1.40;;;38.80;99.90;;;;;;5060676;28;20816;-55
2022/07/03 08:40:22;;;;;;;5.40;1.70;;;39.90;99.90;;;;;;5066164;28;20549;-56
2022/07/03 08:42:56;;;;;;;7.10;3.22;;;40.70;99.90;;;;;;5063156;28;20407;-56
2022/07/03 08:45:24;;;;;;;9.93;3.88;;;39.00;99.90;;;;;;5067356;28;20899;-56
2022/07/03 08:47:52;;;;;;;4.70;1.10;;;38.20;99.90;;;;;;5066164;28;20473;-56
2022/07/03 08:50:19;;;;;;;4.80;1.10;;;38.60;99.90;;;;;;5063776;28;20426;-55
2022/07/03 08:52:46;;;;;;;6.68;4.05;;;39.20;99.90;;;;;;5065475;28;20393;-55
2022/07/03 08:55:13;;;;;;;6.43;5.18;;;38.20;99.90;;;;;;5067579;28;20401;-56
2022/07/03 08:57:41;;;;;;;5.10;1.40;;;38.90;99.90;;;;;;5054238;28;20439;-56
2022/07/03 09:00:12;;;;;;;7.10;2.10;;;39.40;99.90;;;;;;5062798;28;20422;-55
2022/07/03 09:02:43;;;;;;;5.30;1.40;;;40.50;99.90;;;;;;5054545;28;20389;-55
2022/07/03 09:05:09;;;;;;;8.07;1.77;;;39.70;99.90;;;;;;5055486;28;20397;-55
2022/07/03 09:07:36;;;;;;;7.30;5.35;;;39.80;99.90;;;;;;5068250;28;20388;-55
2022/07/03 09:10:07;;;;;;;5.43;1.60;;;39.10;99.90;;;;;;5065505;28;20412;-56
2022/07/03 09:12:33;;;;;;;5.70;1.50;;;39.70;99.90;;;;;;5063127;28;20856;-56
2022/07/03 09:15:00;;;;;;;6.10;3.75;;;40.10;99.90;;;;;;5061397;28;20415;-56
2022/07/03 09:17:28;;;;;;;5.70;3.80;;;38.80;99.90;;;;;;5069977;28;20402;-55
2022/07/03 09:19:54;;;;;;;6.10;1.50;;;38.60;99.90;;;;;;5064742;28;20406;-56
2022/07/03 09:22:24;;;;;;;5.72;1.63;;;39.70;99.90;;;;;;5071521;28;20825;-56
2022/07/03 09:25:10;;;;;;;5.22;1.40;;;40.00;99.90;;;;;;5063223;28;20412;-56
2022/07/03 09:27:37;;;;;;;4.90;1.50;;;39.60;99.90;;;;;;5063204;28;20407;-56
2022/07/03 09:30:09;;;;;;;5.90;2.90;;;40.50;99.90;;;;;;5062447;28;20583;-58
2022/07/03 09:32:38;;;;;;;8.50;1.60;;;41.10;99.90;;;;;;5062678;28;21761;-58
2022/07/03 09:35:24;;;;;;;5.95;1.80;;;41.40;99.90;;;;;;5063643;28;20427;-57
2022/07/03 09:37:58;;;;;;;5.28;2.70;;;41.40;99.90;;;;;;5066856;28;20453;-58
2022/07/03 09:40:44;;;;;;;6.93;2.53;;;40.90;99.90;;;;;;5068486;28;20404;-58
2022/07/03 09:43:10;;;;;;;7.50;5.03;;;40.60;99.90;;;;;;5061488;28;20465;-58
2022/07/03 09:45:53;;;;;;;5.20;2.10;;;41.70;99.90;;;;;;5068839;28;20811;-58
2022/07/03 09:48:26;;;;;;;5.50;1.60;;;41.80;99.90;;;;;;5067279;28;20876;-58
2022/07/03 09:51:10;;;;;;;6.90;4.40;;;41.00;99.90;;;;;;5068003;28;20475;-59
2022/07/03 09:53:51;;;;;;;6.20;4.00;;;40.90;99.90;;;;;;5064968;28;20393;-58
2022/07/03 09:56:19;;;;;;;6.10;4.32;;;40.70;99.90;;;;;;5065480;28;20424;-58
2022/07/03 09:59:03;;;;;;;6.10;4.90;;;39.60;99.90;;;;;;5073954;28;20474;-58
2022/07/03 10:01:29;;;;;;;7.97;4.40;;;39.70;99.90;;;;;;5061335;28;20490;-57
2022/07/03 10:04:11;;;;;;;5.72;1.35;;;39.90;99.90;;;;;;5069968;28;20478;-58
2022/07/03 10:06:51;;;;;;;6.50;5.10;;;40.00;99.90;;;;;;5076024;28;20471;-58
2022/07/03 10:09:19;;;;;;;6.50;4.50;;;39.80;99.90;;;;;;5056644;28;20546;-58
2022/07/03 10:11:46;;;;;;;6.70;5.20;;;40.40;99.90;;;;;;5080438;28;20424;-58
2022/07/03 10:14:17;;;;;;;6.00;1.80;;;40.10;99.90;;;;;;5061116;28;20805;-56
2022/07/03 10:16:43;;;;;;;5.60;1.40;;;41.00;99.90;;;;;;5061917;28;20819;-58
2022/07/03 10:19:13;;;;;;;4.90;1.30;;;41.20;99.90;;;;;;5057864;28;20815;-57
2022/07/03 10:21:41;;;;;;;5.10;1.33;;;40.50;99.90;;;;;;5058745;28;20429;-57
2022/07/03 10:24:08;;;;;;;6.00;1.20;;;40.70;99.90;;;;;;5065285;28;20411;-58
2022/07/03 10:26:34;;;;;;;5.20;1.30;;;40.60;99.90;;;;;;5059968;28;20404;-57
2022/07/03 10:29:02;;;;;;;6.82;5.30;;;40.40;99.90;;;;;;5058273;28;20418;-57
2022/07/03 10:31:28;;;;;;;7.03;6.10;;;39.10;99.90;;;;;;5054745;28;20542;-57
2022/07/03 10:33:54;;;;;;;9.30;4.30;;;38.00;99.90;;;;;;5058500;28;20399;-57
2022/07/03 10:36:21;;;;;;;6.85;5.30;;;37.00;99.90;;;;;;5060011;28;20941;-57
2022/07/03 10:38:48;;;;;;;6.90;5.00;;;35.50;99.90;;;;;;5057634;28;20386;-57
2022/07/03 10:44:47;;;;;;;6.07;4.50;;;34.40;99.90;;;;;;5058277;28;20432;-57
2022/07/03 10:47:39;;;;;;;7.10;5.43;;;33.80;99.90;;;;;;5063245;28;20791;-57
2022/07/03 10:50:11;;;;;;;6.20;5.00;;;33.60;99.90;;;;;;5055360;28;20419;-57
2022/07/03 10:52:38;;;;;;;6.70;4.40;;;33.30;99.90;;;;;;5050064;28;20493;-57
2022/07/03 10:55:06;;;;;;;6.53;5.10;;;33.30;99.90;;;;;;5049804;28;20409;-57
2022/07/03 10:57:33;;;;;;;6.95;4.85;;;33.10;99.90;;;;;;5052696;28;20536;-57
2022/07/03 11:00:00;;;;;;;6.28;4.43;;;32.90;99.90;;;;;;5046527;28;20466;-58
2022/07/03 11:02:46;;;;;;;8.30;5.40;;;32.80;99.90;;;;;;5054351;28;20401;-56
2022/07/03 11:05:20;;;;;;;6.30;5.00;;;32.50;99.90;;;;;;5054708;28;20955;-56
2022/07/03 11:07:54;;;;;;;6.40;4.70;;;32.70;99.90;;;;;;5056020;28;21738;-56
2022/07/03 11:10:20;;;;;;;7.05;5.20;;;32.20;99.90;;;;;;5056869;28;20522;-56
2022/07/03 11:13:01;;;;;;;9.25;4.82;;;32.00;99.90;;;;;;5052354;28;20503;-57
2022/07/03 11:15:30;;;;;;;9.00;5.50;;;32.20;99.90;;;;;;5054767;28;20421;-57
2022/07/03 11:18:05;;;;;;;6.60;4.57;;;32.50;99.90;;;;;;5051570;28;20413;-57
2022/07/03 11:20:32;;;;;;;6.10;4.28;;;32.70;99.90;;;;;;5052006;28;20413;-57
2022/07/03 11:23:10;;;;;;;6.80;4.55;;;32.70;99.90;;;;;;5050954;28;20500;-57
2022/07/03 11:25:41;;;;;;;5.90;4.15;;;32.90;99.90;;;;;;5053364;28;20673;-58
2022/07/03 11:28:06;;;;;;;6.10;4.25;;;32.70;99.90;;;;;;5068465;28;20482;-58
2022/07/03 11:30:33;;;;;;;6.90;4.40;;;32.30;99.90;;;;;;5052252;28;20410;-58
2022/07/03 11:33:00;;;;;;;7.45;4.50;;;32.20;99.90;;;;;;5045544;28;20398;-58
2022/07/03 11:35:48;;;;;;;5.80;3.97;;;32.50;99.90;;;;;;5055467;28;20392;-57
2022/07/03 11:38:28;;;;;;;6.20;4.20;;;32.20;99.90;;;;;;5046819;28;20427;-57
2022/07/03 11:40:55;;;;;;;6.20;4.63;;;32.00;99.90;;;;;;5054172;28;20397;-57
2022/07/03 11:43:21;;;;;;;6.25;4.40;;;32.10;99.90;;;;;;5057900;28;20554;-58
2022/07/03 11:45:49;;;;;;;6.60;4.70;;;32.10;99.90;;;;;;5060138;28;20802;-57
2022/07/03 11:48:26;;;;;;;6.00;4.72;;;32.00;99.90;;;;;;5059807;28;20498;-58
2022/07/03 11:50:52;;;;;;;7.00;5.80;;;32.10;99.90;;;;;;5059068;28;20409;-58
2022/07/03 11:53:20;;;;;;;7.40;5.00;;;32.10;99.90;;;;;;5058880;28;20404;-58
2022/07/03 11:55:58;;;;;;;6.80;4.60;;;32.20;99.90;;;;;;5054237;28;20406;-58
2022/07/03 11:58:25;;;;;;;5.85;5.00;;;32.30;99.90;;;;;;5058459;28;20411;-58
2022/07/03 12:00:52;;;;;;;7.32;4.40;;;32.30;99.90;;;;;;5053709;28;20811;-58
2022/07/03 12:03:24;;;;;;;5.90;4.80;;;32.50;99.90;;;;;;5063229;28;20429;-58
2022/07/03 12:05:51;;;;;;;8.60;4.60;;;32.40;99.90;;;;;;5053585;28;20480;-58
2022/07/03 12:08:23;;;;;;;6.97;5.37;;;32.40;99.90;;;;;;5064418;28;20502;-56
2022/07/03 12:10:49;;;;;;;8.13;5.07;;;32.40;99.90;;;;;;5062108;28;20990;-58
2022/07/03 12:13:19;;;;;;;6.65;5.95;;;32.20;99.90;;;;;;5067127;28;20420;-58
2022/07/03 12:15:46;;;;;;;7.30;5.07;;;32.10;99.90;;;;;;5070200;28;20466;-58
2022/07/03 12:18:12;;;;;;;7.75;4.60;;;31.90;99.90;;;;;;5068511;28;20394;-57
2022/07/03 12:20:37;;;;;;;6.10;5.07;;;31.90;99.90;;;;;;5069917;28;20457;-57
2022/07/03 12:23:03;;;;;;;8.00;5.70;;;32.20;99.90;;;;;;5068585;28;20934;-57
2022/07/03 12:25:31;;;;;;;7.40;5.20;;;32.40;99.90;;;;;;5071454;28;20946;-57
2022/07/03 12:27:57;;;;;;;6.50;5.05;;;32.50;99.90;;;;;;5064755;28;20461;-57
2022/07/03 12:30:25;;;;;;;7.80;4.33;;;32.70;99.90;;;;;;5070000;28;20404;-57
2022/07/03 12:32:51;;;;;;;11.80;6.00;;;32.40;99.90;;;;;;5068628;28;20411;-58
2022/07/03 12:35:24;;;;;;;8.95;4.63;;;32.10;99.90;;;;;;5070232;28;20390;-57
2022/07/03 12:37:49;;;;;;;6.40;5.30;;;32.30;99.90;;;;;;5066183;28;20808;-57
2022/07/03 12:40:15;;;;;;;11.35;6.25;;;31.90;99.90;;;;;;5069185;28;20412;-57
2022/07/03 12:42:49;;;;;;;8.00;5.00;;;32.00;99.90;;;;;;5066390;28;20408;-57
2022/07/03 12:45:23;;;;;;;6.65;4.53;;;32.00;99.90;;;;;;5068461;28;20384;-57
2022/07/03 12:48:03;;;;;;;7.68;4.75;;;31.90;99.90;;;;;;5066478;28;20384;-57
2022/07/03 12:50:45;;;;;;;7.50;4.95;;;31.70;99.90;;;;;;5071474;28;20924;-57
2022/07/03 12:53:28;;;;;;;7.80;5.03;;;31.40;99.90;;;;;;5067892;28;20487;-57
2022/07/03 12:55:54;;;;;;;6.72;4.65;;;31.50;99.90;;;;;;5070058;28;20396;-57
2022/07/03 13:01:25;;;;;;;7.32;4.70;;;32.20;99.90;;;;;;5068412;28;20383;-57
2022/07/03 13:03:50;;;;;;;6.60;4.63;;;32.20;99.90;;;;;;5065412;28;20533;-57
2022/07/03 13:06:16;;;;;;;6.20;4.30;;;32.40;99.90;;;;;;5070111;28;20467;-57
2022/07/03 13:08:59;;;;;;;6.33;4.67;;;32.60;99.90;;;;;;5068608;28;20404;-57
2022/07/03 13:11:37;;;;;;;6.18;5.15;;;32.20;99.90;;;;;;5068196;28;20411;-57